createdAt,value
2022-07-29T00:01:44.693Z,97990.13
2022-07-29T00:04:14.411Z,97993.59
2022-07-29T00:06:43.123Z,97989.23
2022-07-29T00:09:11.608Z,97984.80
2022-07-29T00:11:39.969Z,97986.18
2022-07-29T00:14:08.558Z,97981.27
2022-07-29T00:16:37.161Z,97981.20
2022-07-29T00:19:06.038Z,97981.48
2022-07-29T00:21:36.264Z,97981.41
2022-07-29T00:24:04.825Z,97983.52
2022-07-29T00:26:33.734Z,97986.86
2022-07-29T00:31:53.383Z,97980.30
2022-07-29T00:34:40.257Z,97976.00
2022-07-29T00:37:08.546Z,97972.02
2022-07-29T00:39:36.754Z,97969.88
2022-07-29T00:42:06.266Z,97971.85
2022-07-29T00:44:39.552Z,97970.52
2022-07-29T00:47:09.451Z,97967.31
2022-07-29T00:49:40.823Z,97967.31
2022-07-29T00:52:11.765Z,97967.67
2022-07-29T00:54:44.042Z,97968.45
2022-07-29T00:57:14.650Z,97968.55
2022-07-29T00:59:42.907Z,97968.40
2022-07-29T01:02:11.376Z,97962.85
2022-07-29T01:04:41.133Z,97963.70
2022-07-29T01:07:09.516Z,97963.23
2022-07-29T01:09:45.473Z,97961.85
2022-07-29T01:12:20.334Z,97957.11
2022-07-29T01:14:50.610Z,97961.64
2022-07-29T01:18:08.159Z,97963.13
2022-07-29T01:20:54.730Z,97965.77
2022-07-29T01:23:59.469Z,97960.95
2022-07-29T01:26:49.253Z,97964.61
2022-07-29T01:29:24.216Z,97961.05
2022-07-29T01:32:27.795Z,97960.72
2022-07-29T01:35:15.438Z,97955.98
2022-07-29T01:37:57.002Z,97956.33
2022-07-29T01:40:54.905Z,97955.41
2022-07-29T01:43:43.437Z,97951.46
2022-07-29T01:46:21.286Z,97947.23
2022-07-29T01:48:56.230Z,97950.10
2022-07-29T01:51:37.078Z,97946.75
2022-07-29T01:54:18.187Z,97948.22
2022-07-29T01:57:00.569Z,97942.48
2022-07-29T01:59:31.064Z,97943.87
2022-07-29T02:02:01.503Z,97944.96
2022-07-29T02:04:32.784Z,97945.14
2022-07-29T02:07:07.085Z,97946.05
2022-07-29T02:09:39.012Z,97941.85
2022-07-29T02:12:08.568Z,97942.00
2022-07-29T02:14:44.069Z,97940.17
2022-07-29T02:17:14.487Z,97942.33
2022-07-29T02:19:46.003Z,97939.09
2022-07-29T02:22:15.608Z,97938.27
2022-07-29T02:24:45.468Z,97939.02
2022-07-29T02:27:15.352Z,97937.67
2022-07-29T02:29:45.717Z,97939.86
2022-07-29T02:32:17.195Z,97936.66
2022-07-29T02:34:47.640Z,97939.95
2022-07-29T02:37:18.289Z,97934.91
2022-07-29T02:39:49.924Z,97935.19
2022-07-29T02:42:19.816Z,97933.64
2022-07-29T02:44:48.176Z,97934.90
2022-07-29T02:47:47.103Z,97936.66
2022-07-29T02:50:19.124Z,97937.33
2022-07-29T02:53:09.729Z,97937.58
2022-07-29T02:56:05.683Z,97934.63
2022-07-29T02:58:40.320Z,97935.45
2022-07-29T03:01:24.617Z,97937.05
2022-07-29T03:03:55.119Z,97935.10
2022-07-29T03:06:37.975Z,97929.68
2022-07-29T03:09:13.669Z,97927.59
2022-07-29T03:11:49.418Z,97931.30
2022-07-29T03:14:21.187Z,97931.71
2022-07-29T03:16:51.639Z,97933.96
2022-07-29T03:19:21.563Z,97934.91
2022-07-29T03:21:50.102Z,97931.13
2022-07-29T03:24:31.198Z,97929.88
2022-07-29T03:27:00.014Z,97929.20
2022-07-29T03:29:33.503Z,97931.32
2022-07-29T03:32:08.111Z,97933.25
2022-07-29T03:34:39.051Z,97940.89
2022-07-29T03:37:07.726Z,97942.70
2022-07-29T03:39:42.553Z,97946.70
2022-07-29T03:42:16.776Z,97951.16
2022-07-29T03:44:48.836Z,97950.94
2022-07-29T03:47:23.473Z,97951.69
2022-07-29T03:50:15.974Z,97952.50
2022-07-29T03:52:45.453Z,97954.75
2022-07-29T03:55:15.748Z,97958.17
2022-07-29T03:57:45.935Z,97958.84
2022-07-29T04:00:16.720Z,97957.29
2022-07-29T04:02:49.627Z,97961.89
2022-07-29T04:05:19.360Z,97962.04
2022-07-29T04:07:49.849Z,97959.72
2022-07-29T04:10:26.330Z,97958.64
2022-07-29T04:13:01.073Z,97956.10
2022-07-29T04:15:31.034Z,97954.83
2022-07-29T04:18:00.649Z,97957.70
2022-07-29T04:20:29.235Z,97955.11
2022-07-29T04:22:57.579Z,97954.10
2022-07-29T04:25:25.864Z,97954.95
2022-07-29T04:28:03.018Z,97953.73
2022-07-29T04:30:33.101Z,97952.22
2022-07-29T04:33:03.826Z,97955.04
2022-07-29T04:35:38.207Z,97955.10
2022-07-29T04:38:15.816Z,97956.00
2022-07-29T04:40:45.687Z,97956.55
2022-07-29T04:43:17.091Z,97954.47
2022-07-29T04:45:51.573Z,97952.73
2022-07-29T04:48:21.961Z,97953.44
2022-07-29T04:50:52.343Z,97951.11
2022-07-29T04:53:20.866Z,97950.17
2022-07-29T04:55:49.240Z,97948.86
2022-07-29T04:58:17.551Z,97950.74
2022-07-29T05:00:45.817Z,97947.84
2022-07-29T05:03:14.327Z,97951.55
2022-07-29T05:05:43.447Z,97953.25
2022-07-29T05:08:11.723Z,97953.67
2022-07-29T05:10:39.942Z,97955.94
2022-07-29T05:13:09.120Z,97959.23
2022-07-29T05:15:38.087Z,97960.80
2022-07-29T05:18:06.543Z,97960.34
2022-07-29T05:20:35.747Z,97960.30
2022-07-29T05:23:04.853Z,97965.59
2022-07-29T05:25:44.366Z,97961.16
2022-07-29T05:28:13.965Z,97962.46
2022-07-29T05:30:42.779Z,97967.52
2022-07-29T05:33:34.693Z,97967.75
2022-07-29T05:36:01.171Z,97967.62
2022-07-29T05:38:30.377Z,97969.11
2022-07-29T05:41:01.296Z,97973.36
2022-07-29T05:43:30.017Z,97975.48
2022-07-29T05:45:58.757Z,97973.04
2022-07-29T05:48:27.191Z,97973.03
2022-07-29T05:50:55.898Z,97976.02
2022-07-29T05:53:24.544Z,97976.13
2022-07-29T05:55:53.338Z,97976.57
2022-07-29T05:58:21.768Z,97971.02
2022-07-29T06:00:50.434Z,97969.83
2022-07-29T06:03:18.709Z,97968.50
2022-07-29T06:05:46.897Z,97969.84
2022-07-29T06:08:15.148Z,97971.31
2022-07-29T06:10:43.616Z,97971.27
2022-07-29T06:13:11.791Z,97974.08
2022-07-29T06:15:40.396Z,97969.41
2022-07-29T06:18:11.060Z,97971.15
2022-07-29T06:20:39.580Z,97974.10
2022-07-29T06:23:07.886Z,97970.94
2022-07-29T06:25:37.808Z,97972.27
2022-07-29T06:28:06.127Z,97974.55
2022-07-29T06:30:34.709Z,97976.51
2022-07-29T06:33:04.348Z,97971.02
2022-07-29T06:35:42.120Z,97971.16
2022-07-29T06:38:31.260Z,97968.88
2022-07-29T06:41:04.125Z,97968.34
2022-07-29T06:43:36.023Z,97967.67
2022-07-29T06:46:21.439Z,97962.57
2022-07-29T06:48:52.981Z,97963.07
2022-07-29T06:51:23.921Z,97963.02
2022-07-29T06:53:59.979Z,97963.46
2022-07-29T06:56:39.555Z,97960.56
2022-07-29T06:59:10.894Z,97957.82
2022-07-29T07:01:41.566Z,97958.81
2022-07-29T07:04:10.917Z,97956.69
2022-07-29T07:06:39.432Z,97958.21
2022-07-29T07:09:08.192Z,97951.02
2022-07-29T07:11:36.675Z,97949.27
2022-07-29T07:14:05.051Z,97948.30
2022-07-29T07:16:33.572Z,97946.36
2022-07-29T07:19:02.637Z,97943.54
2022-07-29T07:21:31.427Z,97943.36
2022-07-29T07:24:01.058Z,97937.61
2022-07-29T07:26:30.125Z,97934.80
2022-07-29T07:28:59.024Z,97933.54
2022-07-29T07:31:27.460Z,97930.38
2022-07-29T07:33:56.394Z,97929.05
2022-07-29T07:36:25.078Z,97931.77
2022-07-29T07:38:53.459Z,97930.45
2022-07-29T07:41:23.458Z,97929.84
2022-07-29T07:43:51.954Z,97927.17
2022-07-29T07:46:20.829Z,97927.37
2022-07-29T07:48:49.338Z,97931.52
2022-07-29T07:51:17.914Z,97926.61
2022-07-29T07:53:46.148Z,97929.56
2022-07-29T07:56:14.487Z,97927.08
2022-07-29T07:58:42.869Z,97928.21
2022-07-29T08:01:11.603Z,97923.89
2022-07-29T08:03:40.078Z,97922.38
2022-07-29T08:06:08.501Z,97916.80
2022-07-29T08:08:36.879Z,97915.22
2022-07-29T08:11:09.522Z,97910.00
2022-07-29T08:13:39.506Z,97912.23
2022-07-29T08:16:16.592Z,97919.77
2022-07-29T08:18:47.034Z,97918.21
2022-07-29T08:21:16.738Z,97921.18
2022-07-29T08:24:15.591Z,97925.38
2022-07-29T08:26:45.081Z,97926.14
2022-07-29T08:29:18.354Z,97927.02
2022-07-29T08:31:48.762Z,97924.27
2022-07-29T08:34:17.198Z,97920.59
2022-07-29T08:36:45.427Z,97922.35
2022-07-29T08:39:19.156Z,97917.95
2022-07-29T08:41:57.374Z,97918.47
2022-07-29T08:44:31.131Z,97916.50
2022-07-29T08:46:59.586Z,97922.65
2022-07-29T08:49:28.174Z,97919.14
2022-07-29T08:51:58.900Z,97917.02
2022-07-29T08:54:29.119Z,97915.61
2022-07-29T08:56:58.455Z,97920.73
2022-07-29T08:59:31.611Z,97915.59
2022-07-29T09:02:01.503Z,97912.05
2022-07-29T09:04:36.977Z,97906.89
2022-07-29T09:07:07.146Z,97910.73
2022-07-29T09:09:35.889Z,97908.16
2022-07-29T09:12:05.287Z,97907.98
2022-07-29T09:14:33.594Z,97906.71
2022-07-29T09:17:02.131Z,97902.55
2022-07-29T09:19:35.840Z,97897.99
2022-07-29T09:22:10.404Z,97896.52
2022-07-29T09:24:48.431Z,97890.45
2022-07-29T09:27:27.770Z,97889.48
2022-07-29T09:30:11.796Z,97889.23
2022-07-29T09:33:02.333Z,97883.88
2022-07-29T09:35:32.412Z,97880.68
2022-07-29T09:38:15.002Z,97885.20
2022-07-29T09:40:56.896Z,97881.81
2022-07-29T09:43:28.758Z,97873.48
2022-07-29T09:45:57.464Z,97868.73
2022-07-29T09:48:26.436Z,97864.64
2022-07-29T09:50:56.174Z,97867.96
2022-07-29T09:53:38.996Z,97867.36
2022-07-29T09:56:07.265Z,97865.66
2022-07-29T09:58:35.929Z,97867.08
2022-07-29T10:01:05.183Z,97860.91
2022-07-29T10:03:33.663Z,97856.61
2022-07-29T10:06:10.592Z,97850.90
2022-07-29T10:08:39.006Z,97846.75
2022-07-29T10:11:19.277Z,97844.00
2022-07-29T10:13:50.054Z,97841.16
2022-07-29T10:16:19.045Z,97829.73
2022-07-29T10:18:48.106Z,97834.77
2022-07-29T10:21:34.909Z,97834.55
2022-07-29T10:24:07.662Z,97828.58
2022-07-29T10:26:45.787Z,97824.30
2022-07-29T10:29:14.135Z,97829.60
2022-07-29T10:31:57.662Z,97828.02
2022-07-29T10:34:49.912Z,97824.73
2022-07-29T10:37:50.239Z,97825.34
2022-07-29T10:40:57.381Z,97817.14
2022-07-29T10:43:48.290Z,97807.32
2022-07-29T10:46:20.801Z,97802.82
2022-07-29T10:49:27.951Z,97797.76
2022-07-29T10:52:09.621Z,97794.47
2022-07-29T10:54:43.700Z,97791.89
2022-07-29T10:57:25.581Z,97789.47
2022-07-29T11:00:07.190Z,97792.48
2022-07-29T11:02:41.728Z,97800.15
2022-07-29T11:05:18.944Z,97812.41
2022-07-29T11:08:20.279Z,97820.74
2022-07-29T11:10:51.096Z,97822.98
2022-07-29T11:13:52.229Z,97821.41
2022-07-29T11:16:26.785Z,97819.34
2022-07-29T11:19:13.509Z,97812.11
2022-07-29T11:22:05.411Z,97806.41
2022-07-29T11:24:35.240Z,97808.02
2022-07-29T11:27:23.702Z,97811.08
2022-07-29T11:30:03.388Z,97818.05
2022-07-29T11:32:44.841Z,97818.67
2022-07-29T11:35:36.742Z,97815.74
2022-07-29T11:38:27.662Z,97814.82
2022-07-29T11:41:18.976Z,97811.86
2022-07-29T11:44:02.490Z,97813.64
2022-07-29T11:46:54.103Z,97811.79
2022-07-29T11:49:31.507Z,97808.73
2022-07-29T11:52:04.981Z,97802.68
2022-07-29T11:54:38.793Z,97797.49
2022-07-29T11:57:36.582Z,97791.27
2022-07-29T12:00:14.634Z,97789.59
2022-07-29T12:05:48.168Z,97788.64
2022-07-29T12:07:02.499Z,97787.92
2022-07-29T12:08:23.177Z,97786.50
2022-07-29T12:10:51.986Z,97790.42
2022-07-29T12:13:22.235Z,97791.13
2022-07-29T12:15:57.888Z,97795.22
2022-07-29T12:18:28.642Z,97796.61
2022-07-29T12:21:05.257Z,97794.34
2022-07-29T12:23:35.010Z,97794.71
2022-07-29T12:26:11.014Z,97798.97
2022-07-29T12:28:54.735Z,97802.91
2022-07-29T12:31:42.956Z,97804.85
2022-07-29T12:34:16.367Z,97799.52
2022-07-29T12:36:45.054Z,97790.89
2022-07-29T12:39:13.660Z,97784.70
2022-07-29T12:41:41.881Z,97779.74
2022-07-29T12:44:10.832Z,97781.08
2022-07-29T12:46:39.554Z,97778.51
2022-07-29T12:49:08.086Z,97775.33
2022-07-29T12:51:39.973Z,97776.11
2022-07-29T12:54:14.546Z,97773.39
2022-07-29T12:56:45.567Z,97771.80
2022-07-29T12:59:22.635Z,97769.35
2022-07-29T13:01:53.640Z,97769.35
2022-07-29T13:04:30.376Z,97772.02
2022-07-29T13:07:09.139Z,97772.70
2022-07-29T13:09:44.554Z,97776.48
2022-07-29T13:12:15.276Z,97775.52
2022-07-29T13:14:45.613Z,97775.67
2022-07-29T13:17:21.822Z,97774.27
2022-07-29T13:20:07.222Z,97767.05
2022-07-29T13:22:37.237Z,97768.03
2022-07-29T13:25:07.679Z,97768.66
2022-07-29T13:27:39.163Z,97764.05
2022-07-29T13:30:10.123Z,97765.55
2022-07-29T13:32:38.808Z,97762.49
2022-07-29T13:35:09.489Z,97765.30
2022-07-29T13:37:39.687Z,97766.08
2022-07-29T13:40:10.759Z,97773.70
2022-07-29T13:42:39.752Z,97778.44
2022-07-29T13:45:10.096Z,97785.31
2022-07-29T13:47:38.967Z,97792.05
2022-07-29T13:50:10.936Z,97794.52
2022-07-29T13:52:39.492Z,97799.17
2022-07-29T13:55:09.357Z,97800.76
2022-07-29T13:57:37.654Z,97804.80
2022-07-29T14:00:07.542Z,97803.39
2022-07-29T14:02:36.563Z,97804.34
2022-07-29T14:05:08.706Z,97807.83
2022-07-29T14:07:42.259Z,97813.32
2022-07-29T14:10:11.041Z,97816.08
2022-07-29T14:12:39.708Z,97814.50
2022-07-29T14:15:09.180Z,97820.64
2022-07-29T14:17:37.798Z,97825.89
2022-07-29T14:20:07.311Z,97822.25
2022-07-29T14:22:40.152Z,97816.67
2022-07-29T14:25:14.582Z,97812.76
2022-07-29T14:27:46.781Z,97810.73
2022-07-29T14:30:15.594Z,97811.30
2022-07-29T14:32:44.050Z,97813.91
2022-07-29T14:35:12.534Z,97812.48
2022-07-29T14:37:41.218Z,97813.80
2022-07-29T14:40:11.823Z,97811.30
2022-07-29T14:42:40.865Z,97810.37
2022-07-29T14:45:10.963Z,97809.98
2022-07-29T14:47:40.560Z,97806.48
2022-07-29T14:50:10.084Z,97804.04
2022-07-29T14:52:38.563Z,97802.46
2022-07-29T14:55:19.797Z,97798.02
2022-07-29T14:57:49.513Z,97797.98
2022-07-29T15:00:19.164Z,97795.23
2022-07-29T15:03:03.528Z,97794.27
2022-07-29T15:05:32.734Z,97788.59
2022-07-29T15:08:01.209Z,97788.08
2022-07-29T15:10:30.029Z,97790.29
2022-07-29T15:12:58.583Z,97791.11
2022-07-29T15:15:27.287Z,97800.09
2022-07-29T15:17:55.945Z,97806.07
2022-07-29T15:20:26.986Z,97804.69
2022-07-29T15:22:56.734Z,97801.60
2022-07-29T15:25:28.254Z,97790.39
2022-07-29T15:28:01.323Z,97786.38
2022-07-29T15:30:33.444Z,97778.44
2022-07-29T15:33:04.248Z,97778.08
2022-07-29T15:35:33.445Z,97774.52
2022-07-29T15:38:09.513Z,97772.09
2022-07-29T15:40:42.385Z,97773.45
2022-07-29T15:43:10.974Z,97772.60
2022-07-29T15:45:41.520Z,97762.35
2022-07-29T15:48:14.641Z,97751.73
2022-07-29T15:50:47.107Z,97753.99
2022-07-29T15:53:15.757Z,97750.67
2022-07-29T15:55:44.505Z,97748.91
2022-07-29T15:58:13.129Z,97748.67
2022-07-29T16:00:41.589Z,97751.02
2022-07-29T16:03:10.092Z,97748.82
2022-07-29T16:05:39.297Z,97735.56
2022-07-29T16:08:07.775Z,97735.38
2022-07-29T16:10:36.459Z,97742.25
2022-07-29T16:13:04.943Z,97746.79
2022-07-29T16:15:34.043Z,97753.91
2022-07-29T16:18:02.419Z,97751.57
2022-07-29T16:20:31.619Z,97748.09
2022-07-29T16:22:59.997Z,97748.23
2022-07-29T16:25:50.217Z,97745.15
2022-07-29T16:28:17.549Z,97750.37
2022-07-29T16:30:45.923Z,97756.86
2022-07-29T16:33:14.200Z,97763.02
2022-07-29T16:35:43.406Z,97768.70
2022-07-29T16:38:12.305Z,97771.11
2022-07-29T16:40:40.778Z,97773.11
2022-07-29T16:43:09.386Z,97776.14
2022-07-29T16:45:45.984Z,97778.92
2022-07-29T16:48:17.972Z,97783.58
2022-07-29T16:50:46.685Z,97788.00
2022-07-29T16:53:15.070Z,97791.59
2022-07-29T16:55:43.558Z,97797.61
2022-07-29T16:58:12.303Z,97800.23
2022-07-29T17:00:40.782Z,97805.11
2022-07-29T17:03:09.411Z,97812.21
2022-07-29T17:05:50.712Z,97817.45
2022-07-29T17:08:23.468Z,97833.28
2022-07-29T17:10:51.956Z,97866.86
2022-07-29T17:13:20.636Z,97871.59
2022-07-29T17:15:49.070Z,97861.24
2022-07-29T17:18:17.601Z,97855.89
2022-07-29T17:20:45.821Z,97859.34
2022-07-29T17:23:14.059Z,97857.37
2022-07-29T17:25:42.291Z,97848.45
2022-07-29T17:28:10.561Z,97843.55
2022-07-29T17:30:38.799Z,97845.95
2022-07-29T17:33:07.018Z,97842.98
2022-07-29T17:35:53.665Z,97841.07
2022-07-29T17:38:21.941Z,97833.84
2022-07-29T17:40:50.243Z,97837.34
2022-07-29T17:43:18.514Z,97835.94
2022-07-29T17:45:49.830Z,97833.23
2022-07-29T17:48:20.127Z,97831.20
2022-07-29T17:50:49.273Z,97832.59
2022-07-29T17:53:18.260Z,97830.95
2022-07-29T17:55:48.840Z,97830.83
2022-07-29T17:58:17.131Z,97833.90
2022-07-29T18:00:45.538Z,97841.04
2022-07-29T18:03:15.061Z,97840.27
2022-07-29T18:05:43.457Z,97849.85
2022-07-29T18:08:12.927Z,97858.64
2022-07-29T18:10:41.602Z,97857.92
2022-07-29T18:13:12.756Z,97854.88
2022-07-29T18:15:41.615Z,97852.39
2022-07-29T18:18:10.050Z,97852.80
2022-07-29T18:20:38.634Z,97852.41
2022-07-29T18:23:07.726Z,97850.42
2022-07-29T18:25:36.307Z,97842.47
2022-07-29T18:28:05.538Z,97842.29
2022-07-29T18:30:34.708Z,97843.64
2022-07-29T18:33:20.735Z,97844.73
2022-07-29T18:35:51.653Z,97849.09
2022-07-29T18:38:21.951Z,97853.09
2022-07-29T18:40:50.258Z,97853.96
2022-07-29T18:43:18.494Z,97852.95
2022-07-29T18:45:48.125Z,97852.52
2022-07-29T18:48:16.502Z,97860.75
2022-07-29T18:50:45.401Z,97862.17
2022-07-29T18:53:13.707Z,97859.52
2022-07-29T18:55:42.088Z,97855.94
2022-07-29T18:58:10.315Z,97857.56
2022-07-29T19:00:39.099Z,97854.60
2022-07-29T19:03:07.403Z,97853.10
2022-07-29T19:05:35.812Z,97853.52
2022-07-29T19:08:04.230Z,97855.31
2022-07-29T19:10:32.476Z,97857.02
2022-07-29T19:13:00.814Z,97857.28
2022-07-29T19:15:29.279Z,97858.06
2022-07-29T19:18:00.964Z,97854.74
2022-07-29T19:20:29.768Z,97859.76
2022-07-29T19:22:58.716Z,97865.72
2022-07-29T19:25:26.989Z,97867.33
2022-07-29T19:27:55.247Z,97870.11
2022-07-29T19:30:23.524Z,97878.46
2022-07-29T19:32:51.793Z,97880.52
2022-07-29T19:35:31.678Z,97883.25
2022-07-29T19:38:02.436Z,97886.05
2022-07-29T19:40:30.709Z,97891.73
2022-07-29T19:42:59.495Z,97893.65
2022-07-29T19:45:28.947Z,97888.21
2022-07-29T19:48:01.251Z,97887.42
2022-07-29T19:50:30.675Z,97883.75
2022-07-29T19:52:59.996Z,97874.45
2022-07-29T19:55:28.641Z,97866.30
2022-07-29T19:57:59.084Z,97865.84
2022-07-29T20:00:28.734Z,97868.93
2022-07-29T20:02:58.533Z,97863.63
2022-07-29T20:05:28.472Z,97860.16
2022-07-29T20:07:57.330Z,97861.52
2022-07-29T20:10:25.891Z,97864.44
2022-07-29T20:12:55.225Z,97860.80
2022-07-29T20:15:23.765Z,97859.97
2022-07-29T20:17:56.901Z,97867.07
2022-07-29T20:20:26.371Z,97874.46
2022-07-29T20:22:54.766Z,97874.27
2022-07-29T20:25:24.308Z,97871.78
2022-07-29T20:27:52.958Z,97874.54
2022-07-29T20:30:22.867Z,97868.77
2022-07-29T20:32:51.158Z,97869.14
2022-07-29T20:35:19.970Z,97868.35
2022-07-29T20:37:56.004Z,97871.05
2022-07-29T20:40:29.361Z,97858.88
2022-07-29T20:42:57.609Z,97856.40
2022-07-29T20:45:25.984Z,97854.36
2022-07-29T20:47:54.222Z,97852.17
2022-07-29T20:50:25.200Z,97853.42
2022-07-29T20:52:53.446Z,97861.01
2022-07-29T20:55:21.803Z,97868.09
2022-07-29T20:57:50.103Z,97864.70
2022-07-29T21:00:18.545Z,97867.75
2022-07-29T21:02:47.402Z,97866.26
2022-07-29T21:05:16.370Z,97863.29
2022-07-29T21:07:44.704Z,97855.64
2022-07-29T21:10:14.437Z,97852.77
2022-07-29T21:12:42.779Z,97846.98
2022-07-29T21:15:13.653Z,97845.60
2022-07-29T21:17:48.879Z,97847.54
2022-07-29T21:20:20.667Z,97844.73
2022-07-29T21:22:49.252Z,97843.60
2022-07-29T21:25:17.471Z,97843.65
2022-07-29T21:28:04.078Z,97844.60
2022-07-29T21:30:32.931Z,97843.26
2022-07-29T21:33:03.350Z,97841.75
2022-07-29T21:36:06.601Z,97846.50
2022-07-29T21:38:20.525Z,97853.58
2022-07-29T21:40:51.779Z,97856.98
2022-07-29T21:43:20.655Z,97861.52
2022-07-29T21:45:52.193Z,97861.36
2022-07-29T21:48:21.707Z,97860.49
2022-07-29T21:50:51.319Z,97859.98
2022-07-29T21:53:22.842Z,97855.61
2022-07-29T21:55:52.033Z,97859.17
2022-07-29T21:58:23.006Z,97858.56
2022-07-29T22:00:51.611Z,97855.66
2022-07-29T22:03:20.249Z,97851.51
2022-07-29T22:05:48.511Z,97847.75
2022-07-29T22:08:16.814Z,97847.58
2022-07-29T22:10:45.568Z,97849.59
2022-07-29T22:13:13.814Z,97847.79
2022-07-29T22:15:46.830Z,97844.05
2022-07-29T22:18:20.819Z,97842.55
2022-07-29T22:20:50.641Z,97838.15
2022-07-29T22:23:19.089Z,97834.72
2022-07-29T22:25:47.419Z,97828.57
2022-07-29T22:28:15.723Z,97826.53
2022-07-29T22:30:43.996Z,97825.30
2022-07-29T22:33:17.922Z,97824.42
2022-07-29T22:35:48.697Z,97823.08
2022-07-29T22:38:18.654Z,97823.50
2022-07-29T22:40:48.687Z,97823.95
2022-07-29T22:43:18.907Z,97822.83
2022-07-29T22:45:47.306Z,97821.52
2022-07-29T22:48:15.706Z,97820.16
2022-07-29T22:50:44.054Z,97819.73
2022-07-29T22:53:12.334Z,97817.93
2022-07-29T22:55:40.726Z,97816.91
2022-07-29T22:58:08.984Z,97815.60
2022-07-29T23:00:37.359Z,97810.45
2022-07-29T23:03:05.631Z,97809.56
2022-07-29T23:05:33.916Z,97805.15
2022-07-29T23:08:02.175Z,97801.96
2022-07-29T23:10:30.466Z,97804.30
2022-07-29T23:12:58.822Z,97798.34
2022-07-29T23:15:27.056Z,97795.77
2022-07-29T23:17:55.429Z,97795.54
2022-07-29T23:20:23.756Z,97795.27
2022-07-29T23:22:52.102Z,97791.83
2022-07-29T23:25:20.965Z,97785.61
2022-07-29T23:27:49.230Z,97784.45
2022-07-29T23:30:17.549Z,97783.81
2022-07-29T23:32:45.968Z,97783.27
2022-07-29T23:35:14.195Z,97784.13
2022-07-29T23:37:42.426Z,97779.65
2022-07-29T23:40:14.460Z,97774.52
2022-07-29T23:42:43.748Z,97772.30
2022-07-29T23:45:13.790Z,97771.45
2022-07-29T23:47:42.744Z,97777.67
2022-07-29T23:50:12.702Z,97777.90
2022-07-29T23:52:41.505Z,97775.19
2022-07-29T23:55:36.958Z,97775.52
2022-07-29T23:58:03.110Z,97773.59
